Time;durP1;ratioP1;P1;durP2;ratioP2;P2;SDS_P1;SDS_P2;PMS_P1;PMS_P2;Temp;Humidity;BMP_temperature;BMP_pressure;BME280_temperature;BME280_humidity;BME280_pressure;Samples;Min_cycle;Max_cycle;Signal;HPM_P1;HPM_P2
2024/04/10 00:01:19;;;;;;;0.90;0.70;;;25.00;46.30;;;;;;5500336;26;20485;-60
2024/04/10 00:03:45;;;;;;;0.68;0.57;;;25.00;46.30;;;;;;5500290;26;19997;-60
2024/04/10 00:06:11;;;;;;;1.00;0.60;;;25.00;46.30;;;;;;5521716;25;20025;-60
2024/04/10 00:08:37;;;;;;;1.08;0.70;;;25.00;46.30;;;;;;5500788;26;20086;-61
2024/04/10 00:11:02;;;;;;;0.90;0.63;;;25.00;46.30;;;;;;5496916;26;20017;-60
2024/04/10 00:13:30;;;;;;;0.60;0.60;;;25.00;46.40;;;;;;5499907;26;20075;-60
2024/04/10 00:16:03;;;;;;;0.73;0.50;;;24.90;46.30;;;;;;5497895;26;19999;-60
2024/04/10 00:18:30;;;;;;;0.50;0.50;;;24.90;46.30;;;;;;5499708;26;20010;-60
2024/04/10 00:20:56;;;;;;;0.40;0.40;;;24.90;46.40;;;;;;5498652;26;20016;-61
2024/04/10 00:23:22;;;;;;;0.88;0.65;;;24.90;46.40;;;;;;5502507;26;20017;-60
2024/04/10 00:25:58;;;;;;;1.08;0.60;;;24.90;46.40;;;;;;5501369;26;20013;-60
2024/04/10 00:28:27;;;;;;;1.38;0.68;;;24.80;46.30;;;;;;5500691;26;19995;-60
2024/04/10 00:30:52;;;;;;;0.50;0.50;;;24.80;46.30;;;;;;5501022;26;20632;-60
2024/04/10 00:33:19;;;;;;;0.60;0.60;;;24.80;46.40;;;;;;5501606;26;20037;-61
2024/04/10 00:35:58;;;;;;;0.70;0.60;;;24.80;46.90;;;;;;5498587;26;20012;-61
2024/04/10 00:38:26;;;;;;;1.48;0.60;;;24.80;46.40;;;;;;5499132;26;20017;-60
2024/04/10 00:40:56;;;;;;;1.23;0.85;;;24.80;46.40;;;;;;5501590;26;20021;-60
2024/04/10 00:43:22;;;;;;;0.60;0.60;;;24.80;46.40;;;;;;5500497;26;19999;-60
2024/04/10 00:45:56;;;;;;;0.60;0.50;;;24.80;46.40;;;;;;5503551;26;20299;-60
2024/04/10 00:48:22;;;;;;;0.65;0.50;;;24.80;46.40;;;;;;5499066;26;20073;-60
2024/04/10 00:50:48;;;;;;;0.73;0.68;;;24.70;46.40;;;;;;5497281;26;20014;-61
2024/04/10 00:53:14;;;;;;;1.50;0.68;;;24.70;46.40;;;;;;5501505;26;20009;-60
2024/04/10 00:55:40;;;;;;;0.60;0.60;;;24.70;47.00;;;;;;5500174;26;20342;-61
2024/04/10 00:58:06;;;;;;;0.50;0.50;;;24.70;46.40;;;;;;5499827;26;19989;-61
2024/04/10 01:00:32;;;;;;;0.95;0.50;;;24.70;46.40;;;;;;5499700;26;20737;-61
2024/04/10 01:02:58;;;;;;;0.90;0.60;;;24.70;46.50;;;;;;5500342;26;20333;-61
2024/04/10 01:05:24;;;;;;;0.95;0.60;;;24.60;46.40;;;;;;5500331;26;20479;-61
2024/04/10 01:07:50;;;;;;;1.05;0.68;;;24.60;46.40;;;;;;5500032;26;19997;-61
2024/04/10 01:10:17;;;;;;;0.63;0.60;;;24.60;46.40;;;;;;5501330;26;20039;-61
2024/04/10 01:12:45;;;;;;;1.05;0.70;;;24.60;46.40;;;;;;5501172;26;20477;-62
2024/04/10 01:15:11;;;;;;;0.60;0.60;;;24.60;47.00;;;;;;5502036;26;19993;-61
2024/04/10 01:17:37;;;;;;;0.98;0.70;;;24.60;46.50;;;;;;5504335;26;20010;-61
2024/04/10 01:20:06;;;;;;;1.50;0.60;;;24.60;46.50;;;;;;5502720;26;20407;-62
2024/04/10 01:22:32;;;;;;;0.77;0.60;;;24.50;46.50;;;;;;5493727;26;20043;-61
2024/04/10 01:24:58;;;;;;;0.50;0.50;;;24.50;46.50;;;;;;5499670;26;20001;-61
2024/04/10 01:27:23;;;;;;;0.65;0.60;;;24.50;46.50;;;;;;5500667;26;20077;-62
2024/04/10 01:29:49;;;;;;;0.88;0.60;;;24.50;46.50;;;;;;5499509;26;20002;-62
2024/04/10 01:32:14;;;;;;;0.60;0.57;;;24.50;46.50;;;;;;5500313;26;20001;-61
2024/04/10 01:34:40;;;;;;;0.50;0.50;;;24.50;46.50;;;;;;5500834;26;20449;-62
2024/04/10 01:37:06;;;;;;;0.80;0.60;;;24.50;46.50;;;;;;5495321;26;20014;-61
2024/04/10 01:39:32;;;;;;;1.20;0.50;;;24.50;46.50;;;;;;5502352;26;19998;-61
2024/04/10 01:41:57;;;;;;;0.63;0.50;;;24.50;46.50;;;;;;5498748;26;19999;-62
2024/04/10 01:44:23;;;;;;;0.93;0.60;;;24.40;46.50;;;;;;5498733;26;20047;-62
2024/04/10 01:46:48;;;;;;;0.88;0.60;;;24.40;46.50;;;;;;5503033;26;20008;-61
2024/04/10 01:49:14;;;;;;;1.45;0.70;;;24.40;46.50;;;;;;5500371;26;20009;-61
2024/04/10 01:51:40;;;;;;;0.57;0.50;;;24.40;46.50;;;;;;5497668;26;20004;-61
2024/04/10 01:54:06;;;;;;;0.60;0.50;;;24.40;46.50;;;;;;5501823;26;19998;-62
2024/04/10 01:56:32;;;;;;;0.50;0.50;;;24.40;46.50;;;;;;5467379;26;20046;-61
2024/04/10 01:58:58;;;;;;;0.65;0.60;;;24.40;46.50;;;;;;5501604;26;19993;-62
2024/04/10 02:01:23;;;;;;;0.77;0.60;;;24.40;46.60;;;;;;5503436;26;20494;-61
2024/04/10 02:03:49;;;;;;;0.85;0.57;;;24.30;46.50;;;;;;5499015;26;20031;-60
2024/04/10 02:06:14;;;;;;;0.73;0.57;;;24.30;46.50;;;;;;5495706;26;20411;-60
2024/04/10 02:08:40;;;;;;;0.88;0.55;;;24.30;46.50;;;;;;5499448;26;20067;-61
2024/04/10 02:13:50;;;;;;;0.68;0.57;;;24.30;47.10;;;;;;5501069;26;20008;-60
2024/04/10 02:16:15;;;;;;;0.52;0.52;;;24.30;46.50;;;;;;5501637;26;20005;-61
2024/04/10 02:18:41;;;;;;;0.82;0.60;;;24.30;46.60;;;;;;5501069;26;20021;-61
2024/04/10 02:21:08;;;;;;;0.40;0.40;;;24.30;46.60;;;;;;5496403;26;20487;-60
2024/04/10 02:23:33;;;;;;;0.63;0.60;;;24.30;47.10;;;;;;5501489;26;20350;-60
2024/04/10 02:26:09;;;;;;;0.43;0.43;;;24.30;46.60;;;;;;5504959;26;19998;-60
2024/04/10 02:28:34;;;;;;;0.65;0.52;;;24.20;46.50;;;;;;5501829;26;20002;-60
2024/04/10 02:31:00;;;;;;;0.60;0.55;;;24.30;46.60;;;;;;5469677;26;20318;-60
2024/04/10 02:33:26;;;;;;;0.55;0.50;;;24.20;46.60;;;;;;5499997;26;20026;-60
2024/04/10 02:35:51;;;;;;;0.50;0.50;;;24.20;46.50;;;;;;5494063;26;19995;-60
2024/04/10 02:38:17;;;;;;;0.52;0.52;;;24.20;46.50;;;;;;5499330;26;20081;-61
2024/04/10 02:40:43;;;;;;;0.40;0.40;;;24.20;46.50;;;;;;5498773;26;20014;-63
2024/04/10 02:43:08;;;;;;;0.50;0.50;;;24.20;46.60;;;;;;5499493;26;20013;-60
2024/04/10 02:45:34;;;;;;;0.50;0.50;;;24.20;46.60;;;;;;5501459;26;20013;-60
2024/04/10 02:48:03;;;;;;;0.50;0.50;;;24.20;46.60;;;;;;5501882;26;19998;-60
2024/04/10 02:50:28;;;;;;;0.60;0.40;;;24.20;46.60;;;;;;5498124;26;19997;-60
2024/04/10 02:52:54;;;;;;;0.40;0.40;;;24.20;46.60;;;;;;5494470;26;20488;-60
2024/04/10 02:55:20;;;;;;;0.50;0.50;;;24.10;46.60;;;;;;5498502;26;19998;-61
2024/04/10 02:57:47;;;;;;;0.45;0.40;;;24.10;46.60;;;;;;5500907;26;19998;-60
2024/04/10 03:00:14;;;;;;;0.50;0.50;;;24.10;46.60;;;;;;5498974;26;19995;-61
2024/04/10 03:02:40;;;;;;;0.47;0.47;;;24.10;46.60;;;;;;5499808;26;20148;-61
2024/04/10 03:05:06;;;;;;;0.40;0.40;;;24.10;46.60;;;;;;5499994;26;20009;-60
2024/04/10 03:07:32;;;;;;;0.40;0.40;;;24.10;46.60;;;;;;5498691;26;20767;-60
2024/04/10 03:09:57;;;;;;;0.55;0.52;;;24.10;46.60;;;;;;5500938;26;20009;-60
2024/04/10 03:12:23;;;;;;;0.57;0.50;;;24.10;46.60;;;;;;5502450;26;20403;-61
2024/04/10 03:14:48;;;;;;;0.43;0.43;;;24.10;46.60;;;;;;5497142;26;20418;-62
2024/04/10 03:17:16;;;;;;;1.08;0.60;;;24.10;46.60;;;;;;5498549;26;20005;-62
2024/04/10 03:19:42;;;;;;;0.50;0.50;;;24.10;46.60;;;;;;5498290;26;19998;-62
2024/04/10 03:22:09;;;;;;;0.95;0.60;;;24.10;46.70;;;;;;5494985;26;20012;-61
2024/04/10 03:24:34;;;;;;;0.50;0.50;;;24.10;46.70;;;;;;5498213;26;20009;-62
2024/04/10 03:27:00;;;;;;;0.65;0.60;;;24.00;46.60;;;;;;5501242;26;20698;-61
2024/04/10 03:29:26;;;;;;;0.60;0.60;;;24.10;46.70;;;;;;5499768;26;20014;-61
2024/04/10 03:31:53;;;;;;;0.50;0.50;;;24.00;46.70;;;;;;5499688;26;20016;-60
2024/04/10 03:34:19;;;;;;;0.47;0.47;;;24.00;46.70;;;;;;5500636;26;20330;-61
2024/04/10 03:36:44;;;;;;;0.80;0.50;;;24.00;46.70;;;;;;5496854;26;20038;-61
2024/04/10 03:39:11;;;;;;;0.50;0.50;;;24.00;46.70;;;;;;5495769;26;20020;-60
2024/04/10 03:41:37;;;;;;;0.52;0.47;;;24.00;46.70;;;;;;5471392;26;20073;-61
2024/04/10 03:44:05;;;;;;;0.50;0.43;;;24.00;46.70;;;;;;5497752;26;20450;-60
2024/04/10 03:46:32;;;;;;;0.70;0.50;;;24.00;46.80;;;;;;5501770;26;20002;-60
2024/04/10 03:48:58;;;;;;;0.50;0.50;;;23.90;46.70;;;;;;5497053;26;19998;-60
2024/04/10 03:51:24;;;;;;;0.30;0.30;;;23.90;47.20;;;;;;5503941;26;20009;-60
2024/04/10 03:53:49;;;;;;;0.43;0.43;;;23.90;46.70;;;;;;5498510;26;20005;-60
2024/04/10 03:56:15;;;;;;;1.60;0.60;;;23.90;46.70;;;;;;5502385;26;19998;-61
2024/04/10 03:58:41;;;;;;;1.05;0.80;;;23.90;46.70;;;;;;5500755;26;19994;-61
2024/04/10 04:01:07;;;;;;;0.50;0.50;;;23.90;46.70;;;;;;5502832;26;20042;-61
2024/04/10 04:03:33;;;;;;;0.50;0.45;;;23.90;47.30;;;;;;5497730;26;20437;-61
2024/04/10 04:06:00;;;;;;;0.60;0.50;;;23.90;46.80;;;;;;5500866;26;19994;-61
2024/04/10 04:08:27;;;;;;;0.43;0.43;;;23.90;46.80;;;;;;5501397;26;20005;-60
2024/04/10 04:10:56;;;;;;;0.47;0.47;;;23.90;46.80;;;;;;5500269;26;20002;-60
2024/04/10 04:13:21;;;;;;;0.40;0.40;;;23.90;46.80;;;;;;5503606;26;20005;-60
2024/04/10 04:15:48;;;;;;;0.55;0.55;;;23.90;46.90;;;;;;5497341;26;20686;-60
2024/04/10 04:18:14;;;;;;;0.90;0.60;;;23.90;46.90;;;;;;5503411;26;20002;-61
2024/04/10 04:20:40;;;;;;;0.50;0.50;;;23.80;46.90;;;;;;5504639;26;20452;-60
2024/04/10 04:23:05;;;;;;;0.57;0.50;;;23.80;46.90;;;;;;5501811;26;19997;-60
2024/04/10 04:25:33;;;;;;;0.60;0.60;;;23.90;47.00;;;;;;5501787;26;20061;-60
2024/04/10 04:27:59;;;;;;;0.60;0.60;;;23.90;47.00;;;;;;5500951;26;20001;-60
2024/04/10 04:30:25;;;;;;;0.50;0.40;;;23.80;47.00;;;;;;5466880;26;20013;-60
2024/04/10 04:32:50;;;;;;;0.70;0.60;;;23.80;47.00;;;;;;5503256;26;20018;-61
2024/04/10 04:35:16;;;;;;;0.52;0.52;;;23.80;47.00;;;;;;5502644;26;20065;-61
2024/04/10 04:37:53;;;;;;;0.50;0.50;;;23.80;47.10;;;;;;5495531;26;20017;-61
2024/04/10 04:40:19;;;;;;;0.57;0.50;;;23.80;47.10;;;;;;5501984;26;20009;-62
2024/04/10 04:42:45;;;;;;;0.88;0.57;;;23.80;47.10;;;;;;5499202;26;20051;-61
2024/04/10 04:45:10;;;;;;;0.55;0.55;;;23.80;47.10;;;;;;5499427;26;19994;-62
2024/04/10 04:47:36;;;;;;;0.65;0.60;;;23.80;47.10;;;;;;5500441;26;20006;-62
2024/04/10 04:50:02;;;;;;;0.95;0.60;;;23.80;47.10;;;;;;5506946;26;20001;-62
2024/04/10 04:52:28;;;;;;;0.55;0.55;;;23.80;47.10;;;;;;5496423;26;20002;-61
2024/04/10 04:54:54;;;;;;;0.50;0.50;;;23.70;47.10;;;;;;5503396;26;20009;-62
2024/04/10 04:57:20;;;;;;;0.60;0.50;;;23.80;47.20;;;;;;5502861;26;20030;-62
2024/04/10 04:59:46;;;;;;;0.50;0.50;;;23.80;47.20;;;;;;5501948;26;20079;-62
2024/04/10 05:02:11;;;;;;;0.60;0.60;;;23.70;47.20;;;;;;5503347;26;20469;-62
2024/04/10 05:04:57;;;;;;;1.58;0.88;;;23.70;47.20;;;;;;5504129;26;20346;-62
2024/04/10 05:07:24;;;;;;;0.63;0.50;;;23.70;47.20;;;;;;5499643;26;20032;-62
2024/04/10 05:09:50;;;;;;;0.65;0.50;;;23.70;47.20;;;;;;5501807;26;20010;-62
2024/04/10 05:12:16;;;;;;;1.85;0.60;;;23.70;47.20;;;;;;5500712;26;20080;-62
2024/04/10 05:14:47;;;;;;;1.33;0.60;;;23.70;47.30;;;;;;5501982;26;20414;-62
2024/04/10 05:17:13;;;;;;;0.98;0.60;;;23.70;47.30;;;;;;5499170;26;19997;-62
2024/04/10 05:19:38;;;;;;;1.25;0.60;;;23.70;47.30;;;;;;5502587;26;20812;-62
2024/04/10 05:22:04;;;;;;;1.25;0.70;;;23.70;47.50;;;;;;5498376;26;19998;-62
2024/04/10 05:24:30;;;;;;;0.85;0.50;;;23.70;47.50;;;;;;5498465;26;20005;-63
2024/04/10 05:26:55;;;;;;;1.17;0.60;;;23.70;47.50;;;;;;5500478;26;20001;-62
2024/04/10 05:29:21;;;;;;;0.68;0.47;;;23.70;47.40;;;;;;5500741;26;20047;-61
2024/04/10 05:31:47;;;;;;;1.08;0.60;;;23.70;47.40;;;;;;5499396;26;20011;-62
2024/04/10 05:34:12;;;;;;;1.17;0.80;;;23.70;47.40;;;;;;5502984;26;20042;-61
2024/04/10 05:36:38;;;;;;;1.58;0.65;;;23.70;47.40;;;;;;5495624;26;20073;-62
2024/04/10 05:39:04;;;;;;;1.13;0.60;;;23.70;47.40;;;;;;5491830;26;19998;-62
2024/04/10 05:41:29;;;;;;;1.10;0.57;;;23.70;47.40;;;;;;5502334;26;20021;-62
2024/04/10 05:43:55;;;;;;;0.98;0.55;;;23.70;47.40;;;;;;5501916;26;20366;-62
2024/04/10 05:46:20;;;;;;;1.45;0.60;;;23.60;47.30;;;;;;5499485;26;20018;-62
2024/04/10 05:48:46;;;;;;;1.92;0.77;;;23.70;47.40;;;;;;5501049;26;20368;-62
2024/04/10 05:51:12;;;;;;;1.23;0.60;;;23.70;47.40;;;;;;5501196;26;19998;-62
2024/04/10 05:53:37;;;;;;;1.40;0.80;;;23.70;47.40;;;;;;5496783;26;20012;-62
2024/04/10 05:56:04;;;;;;;2.50;0.70;;;23.60;47.30;;;;;;5501590;26;20008;-61
2024/04/10 05:58:31;;;;;;;1.48;0.70;;;23.60;47.40;;;;;;5498773;26;19994;-62
2024/04/10 06:00:56;;;;;;;0.80;0.50;;;23.60;47.40;;;;;;5500266;26;20022;-62
2024/04/10 06:03:22;;;;;;;0.82;0.57;;;23.60;47.40;;;;;;5500588;26;20352;-61
2024/04/10 06:05:48;;;;;;;1.83;0.80;;;23.60;47.40;;;;;;5498379;26;20002;-62
2024/04/10 06:08:13;;;;;;;2.05;0.70;;;23.60;47.40;;;;;;5496590;26;20465;-61
2024/04/10 06:10:39;;;;;;;1.55;0.70;;;23.60;47.40;;;;;;5499691;26;20069;-62
2024/04/10 06:13:04;;;;;;;1.45;0.80;;;23.60;47.40;;;;;;5499956;26;20013;-62
2024/04/10 06:15:30;;;;;;;1.35;0.80;;;23.60;47.40;;;;;;5500133;26;20410;-61
2024/04/10 06:17:57;;;;;;;0.90;0.60;;;23.60;47.40;;;;;;5498588;26;20010;-63
2024/04/10 06:20:23;;;;;;;1.48;0.70;;;23.60;47.40;;;;;;5504222;26;19998;-62
2024/04/10 06:22:48;;;;;;;1.40;0.77;;;23.60;47.40;;;;;;5500643;26;20075;-62
2024/04/10 06:25:14;;;;;;;3.20;0.90;;;23.60;47.40;;;;;;5496835;26;20457;-62
2024/04/10 06:27:40;;;;;;;1.67;0.80;;;23.50;47.40;;;;;;5498900;26;20009;-62
2024/04/10 06:30:07;;;;;;;3.00;0.90;;;23.60;47.40;;;;;;5501411;26;20566;-61
2024/04/10 06:32:32;;;;;;;1.83;0.80;;;23.60;47.40;;;;;;5500157;26;20001;-61
2024/04/10 06:34:58;;;;;;;1.70;0.90;;;23.50;47.40;;;;;;5502802;26;20349;-62
2024/04/10 06:37:23;;;;;;;1.25;0.60;;;23.50;47.40;;;;;;5501629;26;20046;-62
2024/04/10 06:39:50;;;;;;;1.33;0.70;;;23.50;47.40;;;;;;5496870;26;20025;-62
2024/04/10 06:42:15;;;;;;;1.80;0.82;;;23.50;47.40;;;;;;5499223;26;20417;-62
2024/04/10 06:44:41;;;;;;;1.00;0.65;;;23.50;47.40;;;;;;5500219;26;20001;-61
2024/04/10 06:47:07;;;;;;;2.00;0.77;;;23.50;47.40;;;;;;5500542;26;19998;-62
2024/04/10 06:49:33;;;;;;;1.30;0.70;;;23.50;47.40;;;;;;5498482;26;19998;-62
2024/04/10 06:51:58;;;;;;;2.22;0.73;;;23.50;47.40;;;;;;5499324;26;19994;-63
2024/04/10 06:54:24;;;;;;;2.00;0.90;;;23.50;47.40;;;;;;5463426;26;20005;-62
2024/04/10 06:56:50;;;;;;;1.15;0.70;;;23.50;47.40;;;;;;5502140;26;20101;-63
2024/04/10 06:59:16;;;;;;;1.00;0.55;;;23.50;47.40;;;;;;5497100;26;19998;-62
2024/04/10 07:01:42;;;;;;;1.60;0.80;;;23.50;47.40;;;;;;5500406;26;20403;-61
2024/04/10 07:04:08;;;;;;;1.58;0.73;;;23.50;47.40;;;;;;5497981;26;20002;-62
2024/04/10 07:06:34;;;;;;;1.23;0.70;;;23.50;47.40;;;;;;5500262;26;20073;-61
2024/04/10 07:08:59;;;;;;;1.40;0.70;;;23.50;47.40;;;;;;5494571;26;20056;-62
2024/04/10 07:11:25;;;;;;;1.42;0.80;;;23.50;47.40;;;;;;5498620;26;19994;-62
2024/04/10 07:13:52;;;;;;;2.42;0.80;;;23.50;47.40;;;;;;5498669;26;19998;-61
2024/04/10 07:16:19;;;;;;;1.23;0.60;;;23.50;47.40;;;;;;5499797;26;20453;-61
2024/04/10 07:18:46;;;;;;;1.80;0.80;;;23.50;47.40;;;;;;5438031;26;20009;-61
2024/04/10 07:21:13;;;;;;;2.13;0.70;;;23.40;47.40;;;;;;5496469;26;19998;-61
2024/04/10 07:23:40;;;;;;;1.83;0.77;;;23.50;47.40;;;;;;5493927;26;19995;-60
2024/04/10 07:26:13;;;;;;;2.70;0.75;;;23.40;47.40;;;;;;5528776;25;20017;-61
2024/04/10 07:28:48;;;;;;;2.72;1.10;;;23.40;47.40;;;;;;5500639;26;20017;-61
2024/04/10 07:31:16;;;;;;;1.67;0.80;;;23.40;47.40;;;;;;5496791;26;20013;-62
2024/04/10 07:33:41;;;;;;;2.25;0.80;;;23.40;47.40;;;;;;5500049;26;20068;-61
2024/04/10 07:36:11;;;;;;;1.65;0.80;;;23.40;47.40;;;;;;5499967;26;20009;-61
2024/04/10 07:38:38;;;;;;;1.15;0.70;;;23.40;47.40;;;;;;5496992;26;20018;-61
2024/04/10 07:41:04;;;;;;;1.75;0.80;;;23.40;47.40;;;;;;5498447;26;20017;-61
2024/04/10 07:43:30;;;;;;;1.30;0.73;;;23.40;47.50;;;;;;5496564;26;20073;-61
2024/04/10 07:45:56;;;;;;;1.85;0.80;;;23.40;47.40;;;;;;5500128;26;20009;-61
2024/04/10 07:48:21;;;;;;;1.77;0.80;;;23.40;47.50;;;;;;5496416;26;20010;-61
2024/04/10 07:50:47;;;;;;;2.38;0.85;;;23.40;47.50;;;;;;5497591;26;20067;-61
2024/04/10 07:53:13;;;;;;;1.23;0.80;;;23.40;47.50;;;;;;5493884;26;20002;-62
2024/04/10 07:55:38;;;;;;;1.50;0.70;;;23.40;47.50;;;;;;5495724;26;20628;-62
2024/04/10 07:58:04;;;;;;;1.67;0.70;;;23.30;47.40;;;;;;5499547;26;19993;-62
2024/04/10 08:00:29;;;;;;;1.40;0.70;;;23.40;47.50;;;;;;5497873;26;20520;-62
2024/04/10 08:02:55;;;;;;;1.52;0.77;;;23.40;47.50;;;;;;5501276;26;20002;-62
2024/04/10 08:05:21;;;;;;;1.42;0.77;;;23.40;47.50;;;;;;5497199;26;20072;-62
2024/04/10 08:07:46;;;;;;;1.65;0.75;;;23.40;47.50;;;;;;5499811;26;20362;-62
2024/04/10 08:10:12;;;;;;;3.58;1.00;;;23.30;47.40;;;;;;5497515;26;20010;-62
2024/04/10 08:12:38;;;;;;;1.33;0.70;;;23.30;47.50;;;;;;5500719;26;20013;-62
2024/04/10 08:15:05;;;;;;;1.08;0.80;;;23.30;47.50;;;;;;5496588;26;20018;-62
2024/04/10 08:17:31;;;;;;;1.50;0.70;;;23.30;47.50;;;;;;5495638;26;20002;-62
2024/04/10 08:19:57;;;;;;;1.20;0.77;;;23.30;47.50;;;;;;5498597;26;19998;-62
2024/04/10 08:22:22;;;;;;;1.30;0.70;;;23.30;47.50;;;;;;5498854;26;20387;-61
2024/04/10 08:24:50;;;;;;;1.80;0.80;;;23.30;47.50;;;;;;5493429;26;20326;-61
2024/04/10 08:27:15;;;;;;;1.25;0.63;;;23.30;47.50;;;;;;5498644;26;20012;-61
2024/04/10 08:29:41;;;;;;;1.80;0.80;;;23.30;47.50;;;;;;5493371;26;20445;-61
2024/04/10 08:32:06;;;;;;;1.80;0.82;;;23.30;47.50;;;;;;5497971;26;20005;-61
2024/04/10 08:34:32;;;;;;;1.40;0.70;;;23.30;47.50;;;;;;5499647;26;19993;-61
2024/04/10 08:36:57;;;;;;;1.45;0.90;;;23.30;47.50;;;;;;5504082;26;20423;-61
2024/04/10 08:39:23;;;;;;;1.65;0.80;;;23.30;47.50;;;;;;5499945;26;19994;-61
2024/04/10 08:41:49;;;;;;;1.23;0.68;;;23.20;47.40;;;;;;5502665;26;20174;-61
2024/04/10 08:44:22;;;;;;;1.20;0.70;;;23.30;48.00;;;;;;5503762;26;20418;-61
2024/04/10 08:46:50;;;;;;;1.42;0.80;;;23.20;47.40;;;;;;5502936;26;20012;-60
2024/04/10 08:49:15;;;;;;;1.65;0.88;;;23.30;47.50;;;;;;5503388;26;20350;-61
2024/04/10 08:51:42;;;;;;;1.92;0.80;;;23.20;47.50;;;;;;5503029;26;19998;-61
2024/04/10 08:54:09;;;;;;;1.67;0.90;;;23.30;47.50;;;;;;5498743;26;20002;-61
2024/04/10 08:56:35;;;;;;;2.10;0.85;;;23.20;47.50;;;;;;5500623;26;20457;-61
2024/04/10 08:59:00;;;;;;;2.15;0.85;;;23.20;47.50;;;;;;5502027;26;20033;-61
2024/04/10 09:01:36;;;;;;;1.58;0.80;;;23.20;47.50;;;;;;5500979;26;20542;-61
2024/04/10 09:04:09;;;;;;;0.90;0.60;;;23.20;47.50;;;;;;5500829;26;20094;-61
2024/04/10 09:06:35;;;;;;;1.58;0.80;;;23.20;48.00;;;;;;5501097;26;19999;-61
2024/04/10 09:09:07;;;;;;;2.10;0.82;;;23.20;48.10;;;;;;5504140;26;19993;-60
2024/04/10 09:11:33;;;;;;;1.85;0.70;;;23.20;47.50;;;;;;5500389;26;20069;-61
2024/04/10 09:14:10;;;;;;;1.77;0.80;;;23.20;47.50;;;;;;5501327;26;20051;-62
2024/04/10 09:16:37;;;;;;;1.23;0.85;;;23.20;48.00;;;;;;5497226;26;20370;-62
2024/04/10 09:19:15;;;;;;;1.73;0.80;;;23.20;47.50;;;;;;5502572;26;20001;-62
2024/04/10 09:21:42;;;;;;;1.25;0.70;;;23.20;47.50;;;;;;5468140;26;20002;-62
2024/04/10 09:24:09;;;;;;;1.33;0.80;;;23.20;47.50;;;;;;5498435;26;20002;-62
2024/04/10 09:26:39;;;;;;;1.48;0.70;;;23.20;47.50;;;;;;5497527;26;20003;-62
2024/04/10 09:29:07;;;;;;;1.58;0.90;;;23.20;47.50;;;;;;5498322;26;20038;-62
2024/04/10 09:31:33;;;;;;;1.43;0.80;;;23.20;47.50;;;;;;5501763;26;19998;-62
2024/04/10 09:33:59;;;;;;;0.60;0.60;;;23.20;47.50;;;;;;5501629;26;20015;-60
2024/04/10 09:36:30;;;;;;;1.42;0.70;;;23.20;47.50;;;;;;5495987;26;20446;-61
2024/04/10 09:38:59;;;;;;;2.03;0.88;;;23.20;47.50;;;;;;5495044;26;20006;-61
2024/04/10 09:41:27;;;;;;;1.80;0.70;;;23.20;47.50;;;;;;5499278;26;20002;-60
2024/04/10 09:43:55;;;;;;;1.40;0.70;;;23.20;47.50;;;;;;5501342;26;20036;-60
2024/04/10 09:46:22;;;;;;;0.63;0.60;;;23.20;47.50;;;;;;5502003;26;20030;-60
2024/04/10 09:48:53;;;;;;;1.90;0.70;;;23.20;47.50;;;;;;5499488;26;20450;-61
2024/04/10 09:51:21;;;;;;;1.15;0.70;;;23.10;47.50;;;;;;5502911;26;20485;-61
2024/04/10 09:53:48;;;;;;;1.75;0.75;;;23.20;47.60;;;;;;5499629;26;20002;-60
2024/04/10 09:56:13;;;;;;;1.08;0.60;;;23.20;47.60;;;;;;5498559;26;20001;-61
2024/04/10 09:58:40;;;;;;;1.30;0.80;;;23.20;47.60;;;;;;5499249;26;20001;-60
2024/04/10 10:01:06;;;;;;;1.25;0.70;;;23.10;47.50;;;;;;5499225;26;19994;-61
2024/04/10 10:03:32;;;;;;;0.98;0.60;;;23.10;47.50;;;;;;5498334;26;20354;-60
2024/04/10 10:06:06;;;;;;;0.95;0.80;;;23.20;47.60;;;;;;5500593;26;19998;-60
2024/04/10 10:08:33;;;;;;;1.20;0.75;;;23.10;47.50;;;;;;5498834;26;20009;-61
2024/04/10 10:10:59;;;;;;;0.73;0.60;;;23.10;47.50;;;;;;5494621;26;19998;-61
2024/04/10 10:13:31;;;;;;;0.85;0.63;;;23.10;47.50;;;;;;5503386;26;20075;-62
2024/04/10 10:16:03;;;;;;;0.77;0.68;;;23.10;47.50;;;;;;5501579;26;20109;-62
2024/04/10 10:18:29;;;;;;;1.27;0.70;;;23.10;47.50;;;;;;5500395;26;19998;-62
2024/04/10 10:21:09;;;;;;;1.15;0.70;;;23.10;47.50;;;;;;5500152;26;20538;-62
2024/04/10 10:23:40;;;;;;;1.10;0.70;;;23.10;47.50;;;;;;5498114;26;20300;-62
2024/04/10 10:26:08;;;;;;;1.15;0.60;;;23.10;47.50;;;;;;5495603;26;20748;-60
2024/04/10 10:28:36;;;;;;;0.88;0.70;;;23.10;47.40;;;;;;5499614;26;20336;-61
2024/04/10 10:31:06;;;;;;;1.27;0.70;;;23.10;47.40;;;;;;5501406;26;20082;-61
2024/04/10 10:33:32;;;;;;;1.40;0.80;;;23.10;47.40;;;;;;5470468;26;20032;-61
2024/04/10 10:35:58;;;;;;;0.73;0.60;;;23.10;47.40;;;;;;5497930;26;20002;-61
2024/04/10 10:38:23;;;;;;;1.50;0.73;;;23.10;47.40;;;;;;5500981;26;20016;-61
2024/04/10 10:40:49;;;;;;;1.00;0.60;;;23.10;47.40;;;;;;5497606;26;20014;-62
2024/04/10 10:43:15;;;;;;;1.15;0.70;;;23.10;47.40;;;;;;5502063;26;20461;-62
2024/04/10 10:45:41;;;;;;;1.98;0.70;;;23.10;47.40;;;;;;5499429;26;20665;-62
2024/04/10 10:48:13;;;;;;;1.48;0.80;;;23.10;47.40;;;;;;5498734;26;19997;-61
2024/04/10 10:50:39;;;;;;;1.65;0.80;;;23.10;47.40;;;;;;5499331;26;20005;-61
2024/04/10 10:53:08;;;;;;;1.58;0.70;;;23.10;47.40;;;;;;5503182;26;20534;-62
2024/04/10 10:55:34;;;;;;;1.85;0.70;;;23.10;47.30;;;;;;5499655;26;20109;-63
2024/04/10 10:58:01;;;;;;;2.47;0.80;;;23.20;47.40;;;;;;5496712;26;20349;-61
2024/04/10 11:00:31;;;;;;;1.25;0.70;;;23.10;47.40;;;;;;5466715;26;19997;-61
2024/04/10 11:03:06;;;;;;;1.08;0.70;;;23.20;48.00;;;;;;5500699;26;19993;-62
2024/04/10 11:05:32;;;;;;;1.33;0.70;;;23.20;47.50;;;;;;5495392;26;20078;-62
2024/04/10 11:07:58;;;;;;;1.77;0.80;;;23.10;47.50;;;;;;5495294;26;21109;-62
2024/04/10 11:10:27;;;;;;;1.08;0.70;;;23.20;47.50;;;;;;5496110;26;19998;-62
2024/04/10 11:13:09;;;;;;;2.00;0.80;;;23.20;47.50;;;;;;5494822;26;20036;-61
2024/04/10 11:15:51;;;;;;;0.98;0.70;;;23.20;47.50;;;;;;5500793;26;20030;-61
2024/04/10 11:18:19;;;;;;;1.95;0.80;;;23.20;47.50;;;;;;5501003;26;20744;-62
2024/04/10 11:20:46;;;;;;;2.10;0.90;;;23.20;47.50;;;;;;5500682;26;20366;-62
2024/04/10 11:23:11;;;;;;;1.63;0.70;;;23.20;47.50;;;;;;5497379;26;20228;-62
2024/04/10 11:25:37;;;;;;;2.15;0.80;;;23.20;47.50;;;;;;5499045;26;20020;-62
2024/04/10 11:28:03;;;;;;;1.70;1.00;;;23.20;47.50;;;;;;5499203;26;19995;-63
2024/04/10 11:30:30;;;;;;;1.55;0.75;;;23.20;47.50;;;;;;5498626;26;19998;-62
2024/04/10 11:32:57;;;;;;;1.13;0.80;;;23.20;47.50;;;;;;5500286;26;19993;-62
2024/04/10 11:35:23;;;;;;;1.00;0.60;;;23.20;47.50;;;;;;5500777;26;20475;-62
2024/04/10 11:37:50;;;;;;;1.65;0.70;;;23.20;47.40;;;;;;5497670;26;19998;-62
2024/04/10 11:40:16;;;;;;;1.58;0.70;;;23.20;47.50;;;;;;5500462;26;20549;-62
2024/04/10 11:42:42;;;;;;;1.70;0.80;;;23.20;47.50;;;;;;5494024;26;19994;-62
2024/04/10 11:45:09;;;;;;;2.20;0.82;;;23.20;47.50;;;;;;5498144;26;19998;-63
2024/04/10 11:47:35;;;;;;;1.33;0.65;;;23.30;47.60;;;;;;5499147;26;20069;-62
2024/04/10 11:50:02;;;;;;;1.83;1.20;;;23.30;47.60;;;;;;5499908;26;20465;-62
2024/04/10 11:52:27;;;;;;;2.28;0.82;;;23.30;47.60;;;;;;5499870;26;20045;-62
2024/04/10 11:54:53;;;;;;;1.42;0.80;;;23.30;47.50;;;;;;5499733;26;20434;-60
2024/04/10 11:57:19;;;;;;;1.05;0.70;;;23.30;47.50;;;;;;5493505;26;20013;-60
2024/04/10 11:59:47;;;;;;;1.65;0.80;;;23.30;47.50;;;;;;5498067;26;19994;-61
2024/04/10 12:02:13;;;;;;;2.10;0.80;;;23.40;47.60;;;;;;5499240;26;20013;-60
2024/04/10 12:04:38;;;;;;;1.65;0.70;;;23.40;47.60;;;;;;5496793;26;19997;-61
2024/04/10 12:07:04;;;;;;;1.15;0.63;;;23.40;47.50;;;;;;5498499;26;20013;-61
2024/04/10 12:09:30;;;;;;;1.08;0.70;;;23.40;47.50;;;;;;5501617;26;20042;-61
2024/04/10 12:11:55;;;;;;;1.27;0.80;;;23.40;47.50;;;;;;5499172;26;20009;-61
2024/04/10 12:14:21;;;;;;;1.67;0.70;;;23.40;47.50;;;;;;5500121;26;20400;-61
2024/04/10 12:16:46;;;;;;;2.42;0.70;;;23.40;47.40;;;;;;5503567;26;20005;-61
2024/04/10 12:19:12;;;;;;;1.08;0.80;;;23.40;47.40;;;;;;5502098;26;20004;-61
2024/04/10 12:21:37;;;;;;;1.50;0.80;;;23.40;47.40;;;;;;5501615;26;20457;-61
2024/04/10 12:24:04;;;;;;;1.75;0.75;;;23.40;47.40;;;;;;5502089;26;20061;-61
2024/04/10 12:26:33;;;;;;;2.00;0.95;;;23.40;47.30;;;;;;5500789;26;19998;-60
2024/04/10 12:28:59;;;;;;;1.25;0.80;;;23.40;47.30;;;;;;5501669;26;20088;-61
2024/04/10 12:31:25;;;;;;;2.63;1.10;;;23.40;47.30;;;;;;5502721;26;20479;-61
2024/04/10 12:33:51;;;;;;;1.17;0.80;;;23.40;47.30;;;;;;5502306;26;20025;-61
2024/04/10 12:39:02;;;;;;;1.45;0.90;;;23.40;47.20;;;;;;5500209;26;20198;-62
2024/04/10 12:41:28;;;;;;;1.63;0.80;;;23.40;47.20;;;;;;5499815;26;20005;-62
2024/04/10 12:43:55;;;;;;;1.92;1.10;;;23.40;47.10;;;;;;5501202;26;20002;-63
2024/04/10 12:46:27;;;;;;;1.55;0.90;;;23.40;47.20;;;;;;5498690;26;20019;-63
2024/04/10 12:48:53;;;;;;;2.03;0.90;;;23.40;47.20;;;;;;5472322;26;20012;-63
2024/04/10 12:51:19;;;;;;;1.65;0.85;;;23.40;47.10;;;;;;5502522;26;20005;-63